createdAt,value
2023-02-23T00:00:02.858Z,92.3
2023-02-23T00:15:02.279Z,93.3
2023-02-23T00:30:02.764Z,95.1
2023-02-23T00:45:03.155Z,95.9
2023-02-23T01:00:02.804Z,96.2
2023-02-23T01:15:03.032Z,96.5
2023-02-23T01:30:02.454Z,96.6
2023-02-23T01:45:02.921Z,96.7
2023-02-23T02:00:02.314Z,96.7
2023-02-23T02:15:02.796Z,96.6
2023-02-23T02:30:02.221Z,96.8
2023-02-23T02:45:02.810Z,97.0
2023-02-23T03:00:03.076Z,97.2
2023-02-23T03:15:02.495Z,97.2
2023-02-23T03:30:02.947Z,97.3
2023-02-23T03:45:02.373Z,97.3
2023-02-23T04:00:02.824Z,97.3
2023-02-23T04:15:03.308Z,97.4
2023-02-23T04:30:02.833Z,97.4
2023-02-23T04:45:03.146Z,97.6
2023-02-23T05:00:02.799Z,97.9
2023-02-23T05:15:03.021Z,98.1
2023-02-23T05:30:02.439Z,98.4
2023-02-23T05:45:02.867Z,98.6
2023-02-23T06:00:02.292Z,98.7
2023-02-23T06:15:02.870Z,98.9
2023-02-23T06:30:02.154Z,99.1
2023-02-23T06:45:02.788Z,99.2
2023-02-23T07:00:03.076Z,99.4
2023-02-23T07:15:02.526Z,99.6
2023-02-23T07:30:02.952Z,99.7
2023-02-23T07:45:02.398Z,99.9
2023-02-23T08:00:02.876Z,100.0
2023-02-23T08:15:02.252Z,100.0
2023-02-23T08:30:02.882Z,100.0
2023-02-23T08:45:02.120Z,100.0
2023-02-23T09:00:02.607Z,100.0
2023-02-23T09:15:03.071Z,100.0
2023-02-23T09:30:02.435Z,100.0
2023-02-23T09:45:02.887Z,100.0
2023-02-23T10:00:02.323Z,100.0
2023-02-23T10:15:02.903Z,100.0
2023-02-23T10:30:02.195Z,100.0
2023-02-23T10:45:02.648Z,100.0
2023-02-23T11:00:03.066Z,100.0
2023-02-23T11:15:02.491Z,100.0
2023-02-23T11:30:02.954Z,100.0
2023-02-23T11:45:02.350Z,99.9
2023-02-23T12:00:02.937Z,99.9
2023-02-23T12:15:02.251Z,100.0
2023-02-23T12:30:02.918Z,99.9
2023-02-23T12:45:02.133Z,100.0
2023-02-23T13:00:02.559Z,100.0
2023-02-23T13:15:03.041Z,100.0
2023-02-23T13:30:02.472Z,100.0
2023-02-23T13:45:02.925Z,100.0
2023-02-23T14:00:02.395Z,100.0
2023-02-23T14:15:02.938Z,100.0
2023-02-23T14:30:02.194Z,100.0
2023-02-23T14:45:02.641Z,100.0
2023-02-23T15:00:03.101Z,100.0
2023-02-23T15:15:02.534Z,100.0
2023-02-23T15:30:02.969Z,100.0
2023-02-23T15:45:02.425Z,100.0
2023-02-23T16:00:02.984Z,100.0
2023-02-23T16:15:02.275Z,100.0
2023-02-23T16:30:02.987Z,100.0
2023-02-23T16:45:02.186Z,100.0
2023-02-23T17:00:02.717Z,100.0
2023-02-23T17:15:03.091Z,100.0
2023-02-23T17:30:02.494Z,100.0
2023-02-23T17:45:02.988Z,100.0
2023-02-23T18:00:02.371Z,100.0
2023-02-23T18:15:02.963Z,100.0
2023-02-23T18:30:02.246Z,100.0
2023-02-23T18:45:02.714Z,100.0
2023-02-23T19:00:03.129Z,100.0
2023-02-23T19:15:02.575Z,100.0
2023-02-23T19:30:03.016Z,100.0
2023-02-23T19:45:02.438Z,100.0
2023-02-23T20:00:03.008Z,100.0
2023-02-23T20:15:02.312Z,100.0
2023-02-23T20:30:03.083Z,100.0
2023-02-23T20:45:02.190Z,100.0
2023-02-23T21:00:02.631Z,100.0
2023-02-23T21:15:03.095Z,100.0
2023-02-23T21:30:02.514Z,100.0
2023-02-23T21:45:03.038Z,100.0
2023-02-23T22:00:02.384Z,100.0
2023-02-23T22:15:03.041Z,100.0
2023-02-23T22:30:02.251Z,100.0
2023-02-23T22:45:02.678Z,100.0
2023-02-23T23:00:03.126Z,100.0
2023-02-23T23:15:03.564Z,100.0
2023-02-23T23:30:03.045Z,100.0
2023-02-23T23:45:02.419Z,100.0
